Terminal Aerodrome Forecast
Issued by NWS

Home | Current Version | Previous Version | Graphics & Text | Print | Product List | Glossary On
Versions: 1 2 3 4 5 6 7 8 9 10 11 12 13 14 15 16 17 18 19 20 21 22 23 24 25 26 27 28 29 30 31 32 33 34
000
FTUS43 KLOT 271100
TAFORD
TAF
KORD 271123Z 2712/2818 02006KT 6SM BR OVC008
      TEMPO 2712/2715 3SM -FZDZ BR
     FM271600 04010KT P6SM OVC015
     FM272000 04007KT P6SM SCT030 SCT250
     FM280100 VRB03KT P6SM SCT250
     FM281400 17008KT P6SM FEW150 BKN200=

USA.gov is the U.S. government's official web portal to all federal, state and local government web resources and services.